Aérodrome :







RETROUVEZ-NOUS SUR...

 
LOGIN :

S'inscrire | Disclaimer

   EN    FR    IT 

 









Légende :    VFR   VFR Marginal   IFR   IFR Intensif   IFR Très Intensif
Visi : 
Plafond : 
>= 8 km
>= 3000ft
5 à 8 km
1000 à 3000 ft
1500m à 5 km
500 à 1000 ft
800 à 1500m
200 à 500 ft
< 800m
< 200 ft
Symboles :   Orages  Brouillard  Fortes neiges  Fortes précipitations  Vent > 20 kt






- Altitude de l'aérodrome : 244 ft
- Code IATA : YQB


CYQB - Quebec - Jean Lesage Int.

DERNIER METAR :
  • 150430Z 08012G20KT 12SM -DZ BKN006 OVC015 02/02 A2892 RMK SF6ST2 SLP797

METARs EXPIRÉS :
  • 150422Z 09007G19KT 15SM BKN006 OVC015 02/02 A2892 RMK SF5SC3 SLP798
  • 150400Z 08019G25KT 060V120 8SM -DZ BKN006 OVC015 02/02 A2893 RMK SF6SF2 PRESFR SLP801
  • 150358Z 07018G24KT 060V120 8SM -DZ BKN006 OVC015 02/02 A2894 RMK SF6SF2 PRESFR SLP804
  • 150333Z 09017G27KT 7SM -RA BKN006 OVC014 02/02 A2896 RMK SF7SF1 SLP811
  • 150322Z 08019G32KT 7SM RA BKN006 OVC018 02/02 A2896 RMK SF6SF2 PRESFR SLP811
  • 150304Z 07024G35KT 3SM RA BR BKN005 OVC015 02/02 A2898 RMK SF7SF1 VIS ESE-S 5 SLP819
  • 150256Z 08025G35KT 4SM RA BR BKN004 OVC014 02/02 A2899 RMK SF7SF1 PRESFR SLP820
  • 150240Z 08020G33KT 5SM -RA BR BKN005 OVC012 02/02 A2901 RMK SF7SF1 SLP829
  • 150219Z 07022G33KT 4SM RA BR BKN005 OVC018 02/02 A2902 RMK SF7SC1 PRESFR SLP832
  • 150200Z 08022G32KT 4SM -RA BR BKN004 OVC020 02/02 A2904 RMK SF7SC1 PRESFR SLP837

TAF TAF CYQB
Valide du 15 à 00h jusqu'au 16 à 00h UTC


142338Z 1500/1524 08020G30KT 3SM -RA BR OVC004
TEMPO 1500/1505 6SM -DZ BR BKN006 OVC020
FM150500 09015G25KT 1SM -DZ BR OVC003
TEMPO 1505/1511 5SM -RA BR OVC008
BECMG 1506/1508 20020G35KT
FM151100 24020G35KT 2SM -SN BKN007 OVC020
FM151500 26020G30KT 6SM -SN OVC020
FM151900 26020G30KT P6SM -SHSN BKN030 OVC060 RMK NXT FCST BY 150600Z
ATIS : ENG : +1 418-871-6893 FRA : +1 418-871-6895



MET'MAP, la Météo Aéronautique d'un coup d'oeil ! - Copyright ORBIFLY Décembre 2007 - Disclaimer

ORBIFLY MET'MAP TEAM :

Programmation & Développement : Alexandra Zaïnal
Sur une idée originale de : Baudouin d'Aumeries
Assistance à la programmation : Marc-Olivier Méhu
Soutien technique & logistique : Manuel Goepfert

Contact : metmap@orbifly.com




SOURCES & CREDITS :

   NOAA